Juliaetta, ID

2:43 AM PDT on May 30, 2015 (GMT -0700)
Moose Draw | | Change Station
CLOSE
Current Station
Personal Weather Station
Location: Troy, ID
Elevation: 2569 ft
Nearby Weather Stations

Elev 2569 ft 46.70 °N, 116.79 °W | Updated 2 minutes ago

Overcast
Overcast
58.4 °F
Feels Like 58.4 °F
N
1.0
Wind Variable Wind from WNW
Gusts 2.0 mph

Today
High -- | Low -- °F
--% Chance of Precip.
Yesterday
High -- | Low -- °F
Precip. -- in
4:58 AM 8:30 PM
Waxing Gibbous, 89% visible
Pressure 29.88 in
Visibility 10.0 miles
Clouds Overcast 10000 ft
Dew Point 54 °F
Humidity 84%
Rainfall 0.00 in
Snow Depth Not available.
UV 0 out of 12
Pollen 8.30 out of 12
Air Quality Not available.
Flu Activity No Activity
METAR KLWS 300856Z AUTO 12006KT 10SM OVC100 19/13 A2991 RMK AO2 RAE56 SLP117 6//// T01940128 50010 PNO $

More Conditions Fewer Conditions

Pressure 29.88 in
Visibility 10.0 miles
Clouds Overcast 10000 ft
Dew Point 54 °F
Humidity 84%
Rainfall 0.00 in
Snow Depth Not available.
UV 0 out of 12
Pollen 8.30 out of 12
Air Quality Not available.
Flu Activity No Activity
METAR KLWS 300856Z AUTO 12006KT 10SM OVC100 19/13 A2991 RMK AO2 RAE56 SLP117 6//// T01940128 50010 PNO $

More Conditions Fewer Conditions

10-Day Weather Forecast

Almanac

Astronomy

May. 30, 2015 Rise Set
Actual Time
Civil Twilight
Nautical Twilight
Astronomical Twilight
Moon
Length of Visible Light
Length of Day
Tomorrow will be .
, % of the Moon is Illuminated

Today's Extremes

State Highs State Lows

Community

WunderPhotos

Upload Photos

1,825,476 photos uploaded!

WunderBlogs® & News

Nearby

Air Quality

  Air Quality AQ Index Pollutant
Not available.

Snow Depth

Station Depth Elevation

Earthquake Activity

City Distance Mag. Time & Date
Minimum magnitude displayed is 2.5.

Coastal Water Temperatures

Place Temperature

Stations

Nearby Weather Stations

Station Location Temp. Windchill Dew Point Humidity Wind Precip. Elev Updated Type